sensor_id;sensor_type;location;lat;lon;timestamp;pressure;altitude;pressure_sealevel;temperature;humidity
64066;BME280;50318;54.760;9.408;2022-10-16T00:01:17;100290.19;;;16.61;71.35
64066;BME280;50318;54.760;9.408;2022-10-16T00:03:43;100294.19;;;16.60;71.44
64066;BME280;50318;54.760;9.408;2022-10-16T00:06:09;100291.19;;;16.58;71.39
64066;BME280;50318;54.760;9.408;2022-10-16T00:08:36;100288.91;;;16.56;71.35
64066;BME280;50318;54.760;9.408;2022-10-16T00:13:30;100283.09;;;16.54;71.40
64066;BME280;50318;54.760;9.408;2022-10-16T00:15:57;100283.34;;;16.51;71.44
64066;BME280;50318;54.760;9.408;2022-10-16T00:18:23;100291.66;;;16.51;71.22
64066;BME280;50318;54.760;9.408;2022-10-16T00:20:49;100290.91;;;16.50;71.54
64066;BME280;50318;54.760;9.408;2022-10-16T00:23:34;100285.88;;;16.49;71.46
64066;BME280;50318;54.760;9.408;2022-10-16T00:26:01;100294.16;;;16.49;71.29
64066;BME280;50318;54.760;9.408;2022-10-16T00:28:27;100289.13;;;16.47;71.34
64066;BME280;50318;54.760;9.408;2022-10-16T00:31:02;100286.88;;;16.46;71.45
64066;BME280;50318;54.760;9.408;2022-10-16T00:33:27;100296.44;;;16.45;71.27
64066;BME280;50318;54.760;9.408;2022-10-16T00:35:53;100307.50;;;16.45;71.64
64066;BME280;50318;54.760;9.408;2022-10-16T00:38:19;100308.00;;;16.43;71.37
64066;BME280;50318;54.760;9.408;2022-10-16T00:40:44;100312.28;;;16.44;71.39
64066;BME280;50318;54.760;9.408;2022-10-16T00:45:54;100318.56;;;16.45;71.61
64066;BME280;50318;54.760;9.408;2022-10-16T00:48:20;100307.50;;;16.45;71.34
64066;BME280;50318;54.760;9.408;2022-10-16T00:50:45;100302.72;;;16.45;71.44
64066;BME280;50318;54.760;9.408;2022-10-16T00:53:11;100310.28;;;16.45;71.37
64066;BME280;50318;54.760;9.408;2022-10-16T00:55:37;100312.28;;;16.44;71.37
64066;BME280;50318;54.760;9.408;2022-10-16T00:58:02;100311.53;;;16.44;71.21
64066;BME280;50318;54.760;9.408;2022-10-16T01:00:28;100312.78;;;16.43;71.21
64066;BME280;50318;54.760;9.408;2022-10-16T01:02:55;100308.50;;;16.42;71.16
64066;BME280;50318;54.760;9.408;2022-10-16T01:05:24;100301.47;;;16.41;71.10
64066;BME280;50318;54.760;9.408;2022-10-16T01:10:34;100308.25;;;16.40;71.23
64066;BME280;50318;54.760;9.408;2022-10-16T01:13:07;100314.28;;;16.38;70.98
64066;BME280;50318;54.760;9.408;2022-10-16T01:15:45;100310.00;;;16.37;70.98
64066;BME280;50318;54.760;9.408;2022-10-16T01:20:59;100307.00;;;16.35;71.11
64066;BME280;50318;54.760;9.408;2022-10-16T01:31:19;100301.72;;;16.37;71.05
64066;BME280;50318;54.760;9.408;2022-10-16T01:33:47;100305.97;;;16.38;71.28
64066;BME280;50318;54.760;9.408;2022-10-16T01:36:18;100301.22;;;16.39;71.01
64066;BME280;50318;54.760;9.408;2022-10-16T01:38:47;100303.22;;;16.38;71.22
64066;BME280;50318;54.760;9.408;2022-10-16T01:41:34;100296.94;;;16.38;70.92
64066;BME280;50318;54.760;9.408;2022-10-16T01:44:02;100299.44;;;16.36;70.88
64066;BME280;50318;54.760;9.408;2022-10-16T01:46:30;100294.41;;;16.34;70.77
64066;BME280;50318;54.760;9.408;2022-10-16T01:48:57;100298.44;;;16.33;70.63
64066;BME280;50318;54.760;9.408;2022-10-16T01:51:24;100302.44;;;16.32;70.82
64066;BME280;50318;54.760;9.408;2022-10-16T01:53:52;100302.94;;;16.31;70.81
64066;BME280;50318;54.760;9.408;2022-10-16T01:56:21;100293.13;;;16.30;70.79
64066;BME280;50318;54.760;9.408;2022-10-16T01:58:52;100289.59;;;16.29;70.91
64066;BME280;50318;54.760;9.408;2022-10-16T02:01:21;100287.31;;;16.27;70.79
64066;BME280;50318;54.760;9.408;2022-10-16T02:03:48;100282.03;;;16.24;70.73
64066;BME280;50318;54.760;9.408;2022-10-16T02:06:16;100286.06;;;16.23;71.12
64066;BME280;50318;54.760;9.408;2022-10-16T02:08:42;100279.00;;;16.22;70.97
64066;BME280;50318;54.760;9.408;2022-10-16T02:11:09;100271.72;;;16.19;70.89
64066;BME280;50318;54.760;9.408;2022-10-16T02:13:40;100277.00;;;16.17;71.00
64066;BME280;50318;54.760;9.408;2022-10-16T02:16:11;100293.34;;;16.15;70.87
64066;BME280;50318;54.760;9.408;2022-10-16T02:18:37;100282.75;;;16.13;71.07
64066;BME280;50318;54.760;9.408;2022-10-16T02:21:11;100291.56;;;16.12;70.87
64066;BME280;50318;54.760;9.408;2022-10-16T02:24:00;100297.84;;;16.12;70.93
64066;BME280;50318;54.760;9.408;2022-10-16T02:26:28;100300.38;;;16.10;71.02
64066;BME280;50318;54.760;9.408;2022-10-16T02:28:59;100294.06;;;16.10;71.00
64066;BME280;50318;54.760;9.408;2022-10-16T02:31:27;100293.31;;;16.09;70.99
64066;BME280;50318;54.760;9.408;2022-10-16T02:33:55;100293.78;;;16.08;71.01
64066;BME280;50318;54.760;9.408;2022-10-16T02:36:23;100295.81;;;16.07;71.20
64066;BME280;50318;54.760;9.408;2022-10-16T02:38:53;100291.03;;;16.08;70.89
64066;BME280;50318;54.760;9.408;2022-10-16T02:41:20;100284.75;;;16.07;71.02
64066;BME280;50318;54.760;9.408;2022-10-16T02:43:46;100285.50;;;16.08;70.96
64066;BME280;50318;54.760;9.408;2022-10-16T02:46:11;100306.88;;;16.07;71.07
64066;BME280;50318;54.760;9.408;2022-10-16T02:48:37;100296.31;;;16.06;70.90
64066;BME280;50318;54.760;9.408;2022-10-16T02:51:04;100292.28;;;16.07;71.07
64066;BME280;50318;54.760;9.408;2022-10-16T02:53:30;100295.81;;;16.07;70.97
64066;BME280;50318;54.760;9.408;2022-10-16T02:55:58;100311.66;;;16.07;71.17
64066;BME280;50318;54.760;9.408;2022-10-16T02:58:24;100307.38;;;16.06;70.78
64066;BME280;50318;54.760;9.408;2022-10-16T03:00:49;100319.69;;;16.05;70.98
64066;BME280;50318;54.760;9.408;2022-10-16T03:03:15;100311.38;;;16.05;70.95
64066;BME280;50318;54.760;9.408;2022-10-16T03:05:40;100312.66;;;16.04;71.04
64066;BME280;50318;54.760;9.408;2022-10-16T03:08:08;100320.19;;;16.03;70.93
64066;BME280;50318;54.760;9.408;2022-10-16T03:10:33;100307.13;;;16.04;71.03
64066;BME280;50318;54.760;9.408;2022-10-16T03:12:59;100305.59;;;16.03;70.73
64066;BME280;50318;54.760;9.408;2022-10-16T03:15:24;100306.84;;;16.02;70.92
64066;BME280;50318;54.760;9.408;2022-10-16T03:17:51;100310.13;;;16.00;71.04
64066;BME280;50318;54.760;9.408;2022-10-16T03:20:16;100313.38;;;15.99;70.80
64066;BME280;50318;54.760;9.408;2022-10-16T03:22:44;100309.09;;;15.98;70.62
64066;BME280;50318;54.760;9.408;2022-10-16T03:25:10;100303.31;;;15.95;70.77
64066;BME280;50318;54.760;9.408;2022-10-16T03:27:36;100306.09;;;15.95;70.73
64066;BME280;50318;54.760;9.408;2022-10-16T03:30:02;100306.59;;;15.94;70.83
64066;BME280;50318;54.760;9.408;2022-10-16T03:32:28;100308.59;;;15.93;70.65
64066;BME280;50318;54.760;9.408;2022-10-16T03:34:54;100308.34;;;15.91;70.76
64066;BME280;50318;54.760;9.408;2022-10-16T03:37:21;100315.13;;;15.90;70.97
64066;BME280;50318;54.760;9.408;2022-10-16T03:39:47;100300.53;;;15.90;70.80
64066;BME280;50318;54.760;9.408;2022-10-16T03:42:12;100309.59;;;15.90;70.91
64066;BME280;50318;54.760;9.408;2022-10-16T03:44:38;100315.63;;;15.89;70.65
64066;BME280;50318;54.760;9.408;2022-10-16T03:47:03;100305.06;;;15.87;70.86
64066;BME280;50318;54.760;9.408;2022-10-16T03:49:29;100305.06;;;15.87;70.78
64066;BME280;50318;54.760;9.408;2022-10-16T03:51:55;100309.06;;;15.86;70.63
64066;BME280;50318;54.760;9.408;2022-10-16T03:54:20;100304.50;;;15.83;70.43
64066;BME280;50318;54.760;9.408;2022-10-16T03:56:47;100309.28;;;15.83;70.46
64066;BME280;50318;54.760;9.408;2022-10-16T03:59:13;100320.84;;;15.81;70.84
64066;BME280;50318;54.760;9.408;2022-10-16T04:01:38;100329.13;;;15.81;70.72
64066;BME280;50318;54.760;9.408;2022-10-16T04:04:04;100331.63;;;15.79;70.89
64066;BME280;50318;54.760;9.408;2022-10-16T04:06:29;100326.88;;;15.80;70.63
64066;BME280;50318;54.760;9.408;2022-10-16T04:09:18;100326.88;;;15.80;70.57
64066;BME280;50318;54.760;9.408;2022-10-16T04:11:43;100325.34;;;15.79;70.75
64066;BME280;50318;54.760;9.408;2022-10-16T04:14:09;100332.13;;;15.78;70.62
64066;BME280;50318;54.760;9.408;2022-10-16T04:16:35;100326.34;;;15.76;70.50
64066;BME280;50318;54.760;9.408;2022-10-16T04:19:00;100331.63;;;15.74;70.71
64066;BME280;50318;54.760;9.408;2022-10-16T04:21:31;100322.56;;;15.73;70.83
64066;BME280;50318;54.760;9.408;2022-10-16T04:23:57;100323.81;;;15.72;70.98
64066;BME280;50318;54.760;9.408;2022-10-16T04:26:22;100329.34;;;15.72;70.62
64066;BME280;50318;54.760;9.408;2022-10-16T04:28:48;100332.59;;;15.71;70.56
64066;BME280;50318;54.760;9.408;2022-10-16T04:31:14;100336.13;;;15.71;70.65
64066;BME280;50318;54.760;9.408;2022-10-16T04:33:41;100333.84;;;15.70;70.78
64066;BME280;50318;54.760;9.408;2022-10-16T04:36:08;100330.34;;;15.69;70.69
64066;BME280;50318;54.760;9.408;2022-10-16T04:38:33;100333.09;;;15.69;70.53
64066;BME280;50318;54.760;9.408;2022-10-16T04:40:59;100338.63;;;15.69;70.72
64066;BME280;50318;54.760;9.408;2022-10-16T04:43:25;100338.63;;;15.69;70.61
64066;BME280;50318;54.760;9.408;2022-10-16T04:45:51;100344.44;;;15.71;70.66
64066;BME280;50318;54.760;9.408;2022-10-16T04:48:17;100349.72;;;15.75;70.90
64066;BME280;50318;54.760;9.408;2022-10-16T04:50:43;100343.69;;;15.76;70.73
64066;BME280;50318;54.760;9.408;2022-10-16T04:53:08;100350.75;;;15.77;70.67
64066;BME280;50318;54.760;9.408;2022-10-16T04:55:34;100354.53;;;15.80;70.74
64066;BME280;50318;54.760;9.408;2022-10-16T04:58:00;100356.78;;;15.81;70.68
64066;BME280;50318;54.760;9.408;2022-10-16T05:00:25;100359.31;;;15.85;70.44
64066;BME280;50318;54.760;9.408;2022-10-16T05:02:51;100357.59;;;15.87;70.83
64066;BME280;50318;54.760;9.408;2022-10-16T05:05:17;100354.59;;;15.91;70.72
64066;BME280;50318;54.760;9.408;2022-10-16T05:07:45;100372.22;;;15.93;70.70
64066;BME280;50318;54.760;9.408;2022-10-16T05:10:10;100376.75;;;15.96;70.74
64066;BME280;50318;54.760;9.408;2022-10-16T05:12:36;100377.00;;;15.99;70.63
64066;BME280;50318;54.760;9.408;2022-10-16T05:15:02;100371.47;;;15.99;70.40
64066;BME280;50318;54.760;9.408;2022-10-16T05:17:27;100382.81;;;16.01;70.54
64066;BME280;50318;54.760;9.408;2022-10-16T05:19:56;100376.78;;;16.02;70.62
64066;BME280;50318;54.760;9.408;2022-10-16T05:22:21;100369.50;;;16.05;70.50
64066;BME280;50318;54.760;9.408;2022-10-16T05:24:47;100383.56;;;16.07;70.58
64066;BME280;50318;54.760;9.408;2022-10-16T05:27:12;100388.91;;;16.10;70.61
64066;BME280;50318;54.760;9.408;2022-10-16T05:29:47;100384.13;;;16.11;70.57
64066;BME280;50318;54.760;9.408;2022-10-16T05:32:13;100387.91;;;16.13;70.60
64066;BME280;50318;54.760;9.408;2022-10-16T05:34:42;100382.38;;;16.13;70.36
64066;BME280;50318;54.760;9.408;2022-10-16T05:37:08;100381.88;;;16.15;70.60
64066;BME280;50318;54.760;9.408;2022-10-16T05:39:34;100376.59;;;16.17;70.32
64066;BME280;50318;54.760;9.408;2022-10-16T05:42:02;100367.81;;;16.18;70.77
64066;BME280;50318;54.760;9.408;2022-10-16T05:44:28;100366.06;;;16.21;70.51
64066;BME280;50318;54.760;9.408;2022-10-16T05:46:53;100354.47;;;16.22;70.40
64066;BME280;50318;54.760;9.408;2022-10-16T05:49:42;100374.59;;;16.23;70.41
64066;BME280;50318;54.760;9.408;2022-10-16T05:52:08;100379.38;;;16.22;70.42
64066;BME280;50318;54.760;9.408;2022-10-16T05:54:33;100382.66;;;16.21;70.30
64066;BME280;50318;54.760;9.408;2022-10-16T05:56:59;100387.44;;;16.20;70.23
64066;BME280;50318;54.760;9.408;2022-10-16T05:59:25;100392.69;;;16.18;70.15
64066;BME280;50318;54.760;9.408;2022-10-16T06:01:50;100389.94;;;16.18;70.15
64066;BME280;50318;54.760;9.408;2022-10-16T06:04:16;100390.69;;;16.19;69.96
64066;BME280;50318;54.760;9.408;2022-10-16T06:06:41;100391.72;;;16.21;70.46
64066;BME280;50318;54.760;9.408;2022-10-16T06:09:07;100397.50;;;16.23;70.31
64066;BME280;50318;54.760;9.408;2022-10-16T06:11:32;100389.97;;;16.24;70.17
64066;BME280;50318;54.760;9.408;2022-10-16T06:14:00;100394.50;;;16.27;70.17
64066;BME280;50318;54.760;9.408;2022-10-16T06:16:27;100401.03;;;16.30;70.17
64066;BME280;50318;54.760;9.408;2022-10-16T06:18:54;100406.84;;;16.32;70.12
64066;BME280;50318;54.760;9.408;2022-10-16T06:21:39;100412.66;;;16.34;69.93
64066;BME280;50318;54.760;9.408;2022-10-16T06:24:04;100419.44;;;16.33;69.85
64066;BME280;50318;54.760;9.408;2022-10-16T06:26:30;100421.72;;;16.34;69.96
64066;BME280;50318;54.760;9.408;2022-10-16T06:28:56;100421.72;;;16.34;69.87
64066;BME280;50318;54.760;9.408;2022-10-16T06:31:22;100418.66;;;16.32;69.58
64066;BME280;50318;54.760;9.408;2022-10-16T06:33:51;100421.44;;;16.32;69.55
64066;BME280;50318;54.760;9.408;2022-10-16T06:36:17;100422.69;;;16.31;69.50
64066;BME280;50318;54.760;9.408;2022-10-16T06:38:43;100421.91;;;16.25;69.40
64066;BME280;50318;54.760;9.408;2022-10-16T06:41:09;100434.03;;;16.33;69.50
64066;BME280;50318;54.760;9.408;2022-10-16T06:43:36;100429.03;;;16.37;69.41
64066;BME280;50318;54.760;9.408;2022-10-16T06:46:02;100438.59;;;16.42;69.51
64066;BME280;50318;54.760;9.408;2022-10-16T06:48:28;100435.59;;;16.45;69.36
64066;BME280;50318;54.760;9.408;2022-10-16T06:51:16;100434.34;;;16.46;69.18
64066;BME280;50318;54.760;9.408;2022-10-16T06:54:03;100434.59;;;16.48;68.90
64066;BME280;50318;54.760;9.408;2022-10-16T06:56:52;100435.84;;;16.47;68.99
64066;BME280;50318;54.760;9.408;2022-10-16T06:59:45;100442.91;;;16.48;68.90
64066;BME280;50318;54.760;9.408;2022-10-16T07:02:11;100443.66;;;16.49;69.22
64066;BME280;50318;54.760;9.408;2022-10-16T07:05:03;100454.75;;;16.54;68.96
64066;BME280;50318;54.760;9.408;2022-10-16T07:07:28;100457.81;;;16.56;68.94
64066;BME280;50318;54.760;9.408;2022-10-16T07:09:54;100462.09;;;16.57;69.07
64066;BME280;50318;54.760;9.408;2022-10-16T07:12:19;100457.81;;;16.62;68.93
64066;BME280;50318;54.760;9.408;2022-10-16T07:15:04;100451.03;;;16.63;68.83
64066;BME280;50318;54.760;9.408;2022-10-16T07:17:29;100450.06;;;16.66;68.80
64066;BME280;50318;54.760;9.408;2022-10-16T07:20:30;100454.84;;;16.71;68.62
64066;BME280;50318;54.760;9.408;2022-10-16T07:22:56;100464.19;;;16.74;68.42
64066;BME280;50318;54.760;9.408;2022-10-16T07:25:21;100454.88;;;16.77;68.45
64066;BME280;50318;54.760;9.408;2022-10-16T07:27:47;100461.22;;;16.83;68.29
64066;BME280;50318;54.760;9.408;2022-10-16T07:30:12;100470.28;;;16.89;68.52
64066;BME280;50318;54.760;9.408;2022-10-16T07:32:38;100472.56;;;16.96;68.39
64066;BME280;50318;54.760;9.408;2022-10-16T07:35:04;100467.03;;;17.02;68.22
64066;BME280;50318;54.760;9.408;2022-10-16T07:37:30;100475.13;;;17.05;67.99
64066;BME280;50318;54.760;9.408;2022-10-16T07:39:55;100464.53;;;17.04;67.78
64066;BME280;50318;54.760;9.408;2022-10-16T07:42:21;100474.84;;;17.03;67.76
64066;BME280;50318;54.760;9.408;2022-10-16T07:44:47;100467.78;;;17.02;67.62
64066;BME280;50318;54.760;9.408;2022-10-16T07:47:12;100478.63;;;17.00;67.72
64066;BME280;50318;54.760;9.408;2022-10-16T07:49:38;100489.47;;;17.04;67.92
64066;BME280;50318;54.760;9.408;2022-10-16T07:52:03;100486.22;;;17.05;68.13
64066;BME280;50318;54.760;9.408;2022-10-16T07:54:29;100477.91;;;17.11;67.78
64066;BME280;50318;54.760;9.408;2022-10-16T07:56:55;100481.44;;;17.17;67.92
64066;BME280;50318;54.760;9.408;2022-10-16T07:59:20;100473.88;;;17.23;67.56
64066;BME280;50318;54.760;9.408;2022-10-16T08:01:46;100477.19;;;17.33;67.66
64066;BME280;50318;54.760;9.408;2022-10-16T08:04:11;100486.53;;;17.41;67.41
64066;BME280;50318;54.760;9.408;2022-10-16T08:06:38;100487.53;;;17.49;67.36
64066;BME280;50318;54.760;9.408;2022-10-16T08:09:04;100496.13;;;17.57;66.99
64066;BME280;50318;54.760;9.408;2022-10-16T08:11:29;100509.50;;;17.58;66.69
64066;BME280;50318;54.760;9.408;2022-10-16T08:14:04;100515.28;;;17.60;nan
64066;BME280;50318;54.760;9.408;2022-10-16T08:16:29;100521.84;;;17.63;66.67
64066;BME280;50318;54.760;9.408;2022-10-16T08:18:55;100514.53;;;17.65;66.65
64066;BME280;50318;54.760;9.408;2022-10-16T08:21:21;100527.13;;;17.66;66.34
64066;BME280;50318;54.760;9.408;2022-10-16T08:23:53;100518.59;;;17.70;66.54
64066;BME280;50318;54.760;9.408;2022-10-16T08:26:20;100515.84;;;17.75;66.74
64066;BME280;50318;54.760;9.408;2022-10-16T08:28:46;100522.13;;;17.82;66.76
64066;BME280;50318;54.760;9.408;2022-10-16T08:31:15;100522.63;;;17.86;66.39
64066;BME280;50318;54.760;9.408;2022-10-16T08:33:44;100529.19;;;17.88;66.10
64066;BME280;50318;54.760;9.408;2022-10-16T08:36:12;100518.34;;;17.90;65.89
64066;BME280;50318;54.760;9.408;2022-10-16T08:38:38;100522.13;;;17.93;65.64
64066;BME280;50318;54.760;9.408;2022-10-16T08:43:43;100519.38;;;17.98;65.40
64066;BME280;50318;54.760;9.408;2022-10-16T08:48:52;100530.47;;;18.04;65.56
64066;BME280;50318;54.760;9.408;2022-10-16T08:51:24;100538.53;;;18.07;65.19
64066;BME280;50318;54.760;9.408;2022-10-16T08:54:04;100547.84;;;18.10;65.12
64066;BME280;50318;54.760;9.408;2022-10-16T08:56:30;100555.16;;;18.13;65.11
64066;BME280;50318;54.760;9.408;2022-10-16T08:58:57;100561.72;;;18.16;64.89
64066;BME280;50318;54.760;9.408;2022-10-16T09:01:24;100556.16;;;18.16;65.01
64066;BME280;50318;54.760;9.408;2022-10-16T09:16:30;100576.38;;;18.27;64.96
64066;BME280;50318;54.760;9.408;2022-10-16T09:21:41;100593.00;;;18.38;64.97
64066;BME280;50318;54.760;9.408;2022-10-16T09:26:39;100590.72;;;18.54;65.13
64066;BME280;50318;54.760;9.408;2022-10-16T09:29:12;100591.69;;;18.62;64.44
64066;BME280;50318;54.760;9.408;2022-10-16T09:31:39;100597.78;;;18.66;64.64
64066;BME280;50318;54.760;9.408;2022-10-16T09:34:05;100606.38;;;18.62;64.08
64066;BME280;50318;54.760;9.408;2022-10-16T09:36:41;100603.84;;;18.59;63.92
64066;BME280;50318;54.760;9.408;2022-10-16T09:39:09;100608.63;;;18.58;63.74
64066;BME280;50318;54.760;9.408;2022-10-16T09:41:39;100609.63;;;18.61;63.88
64066;BME280;50318;54.760;9.408;2022-10-16T09:44:40;100629.09;;;18.66;64.09
64066;BME280;50318;54.760;9.408;2022-10-16T09:47:11;100615.44;;;18.68;63.96
64066;BME280;50318;54.760;9.408;2022-10-16T09:52:18;100620.00;;;18.66;64.05
64066;BME280;50318;54.760;9.408;2022-10-16T09:55:13;100603.59;;;18.68;63.95
64066;BME280;50318;54.760;9.408;2022-10-16T09:57:51;100615.22;;;18.72;64.00
64066;BME280;50318;54.760;9.408;2022-10-16T10:00:18;100612.94;;;18.76;64.03
64066;BME280;50318;54.760;9.408;2022-10-16T10:02:44;100622.50;;;18.81;63.70
64066;BME280;50318;54.760;9.408;2022-10-16T10:07:52;100637.16;;;18.81;63.61
64066;BME280;50318;54.760;9.408;2022-10-16T10:10:25;100632.59;;;18.84;63.79
64066;BME280;50318;54.760;9.408;2022-10-16T10:12:51;100644.72;;;18.86;63.52
64066;BME280;50318;54.760;9.408;2022-10-16T10:15:17;100653.31;;;18.94;63.31
64066;BME280;50318;54.760;9.408;2022-10-16T10:30:20;100678.50;;;19.24;62.71
64066;BME280;50318;54.760;9.408;2022-10-16T10:32:56;100668.38;;;19.26;62.42
64066;BME280;50318;54.760;9.408;2022-10-16T10:35:40;100662.53;;;19.30;62.48
64066;BME280;50318;54.760;9.408;2022-10-16T10:40:49;100657.63;;;19.53;64.08
64066;BME280;50318;54.760;9.408;2022-10-16T10:46:09;100639.88;;;19.73;62.89
64066;BME280;50318;54.760;9.408;2022-10-16T10:48:54;100666.91;;;19.78;61.56
64066;BME280;50318;54.760;9.408;2022-10-16T10:51:35;100676.28;;;19.75;61.40
64066;BME280;50318;54.760;9.408;2022-10-16T11:02:21;100674.28;;;19.70;61.05
64066;BME280;50318;54.760;9.408;2022-10-16T11:10:30;100689.72;;;19.71;61.21
64066;BME280;50318;54.760;9.408;2022-10-16T11:13:51;100699.56;;;19.72;60.99
64066;BME280;50318;54.760;9.408;2022-10-16T11:15:54;100697.06;;;19.68;60.50
64066;BME280;50318;54.760;9.408;2022-10-16T11:18:38;100704.16;;;19.63;60.39
64066;BME280;50318;54.760;9.408;2022-10-16T11:21:11;100710.75;;;19.60;60.17
64066;BME280;50318;54.760;9.408;2022-10-16T11:23:51;100706.69;;;19.61;60.51
64066;BME280;50318;54.760;9.408;2022-10-16T11:26:32;100728.94;;;19.67;60.53
64066;BME280;50318;54.760;9.408;2022-10-16T11:29:02;100733.69;;;19.78;59.84
64066;BME280;50318;54.760;9.408;2022-10-16T11:31:43;100736.97;;;19.82;59.95
64066;BME280;50318;54.760;9.408;2022-10-16T11:34:32;100747.06;;;19.85;59.53
64066;BME280;50318;54.760;9.408;2022-10-16T11:37:20;100737.22;;;19.78;58.95
64066;BME280;50318;54.760;9.408;2022-10-16T11:39:48;100758.53;;;19.70;59.01
64066;BME280;50318;54.760;9.408;2022-10-16T11:42:40;100759.56;;;19.67;59.34
64066;BME280;50318;54.760;9.408;2022-10-16T11:45:26;100769.19;;;19.66;59.31
64066;BME280;50318;54.760;9.408;2022-10-16T11:48:04;100755.03;;;19.64;59.20
64066;BME280;50318;54.760;9.408;2022-10-16T11:50:43;100765.91;;;19.56;59.31
64066;BME280;50318;54.760;9.408;2022-10-16T11:56:38;100756.56;;;19.54;59.59
64066;BME280;50318;54.760;9.408;2022-10-16T11:59:38;100778.03;;;19.65;60.20
64066;BME280;50318;54.760;9.408;2022-10-16T12:04:45;100783.31;;;19.62;59.43
64066;BME280;50318;54.760;9.408;2022-10-16T12:07:15;100788.16;;;19.56;59.48
64066;BME280;50318;54.760;9.408;2022-10-16T12:09:44;100797.00;;;19.49;60.21
64066;BME280;50318;54.760;9.408;2022-10-16T12:15:03;100803.13;;;19.25;62.47
64066;BME280;50318;54.760;9.408;2022-10-16T12:17:43;100797.56;;;19.20;63.84
64066;BME280;50318;54.760;9.408;2022-10-16T12:23:00;100811.47;;;19.20;63.55
64066;BME280;50318;54.760;9.408;2022-10-16T12:28:02;100829.69;;;19.04;63.12
64066;BME280;50318;54.760;9.408;2022-10-16T12:30:32;100825.38;;;18.92;63.46
64066;BME280;50318;54.760;9.408;2022-10-16T12:35:46;100850.88;;;18.79;63.80
64066;BME280;50318;54.760;9.408;2022-10-16T12:38:26;100850.63;;;18.77;64.24
64066;BME280;50318;54.760;9.408;2022-10-16T12:43:28;100865.28;;;18.78;63.63
64066;BME280;50318;54.760;9.408;2022-10-16T12:48:36;100861.75;;;18.88;63.83
64066;BME280;50318;54.760;9.408;2022-10-16T12:54:17;100859.75;;;19.00;62.87
64066;BME280;50318;54.760;9.408;2022-10-16T12:59:57;100874.66;;;19.08;62.15
64066;BME280;50318;54.760;9.408;2022-10-16T13:16:18;100898.91;;;19.52;60.43
64066;BME280;50318;54.760;9.408;2022-10-16T13:19:04;100911.31;;;19.62;59.55
64066;BME280;50318;54.760;9.408;2022-10-16T13:24:25;100914.88;;;19.74;59.36
64066;BME280;50318;54.760;9.408;2022-10-16T13:29:19;100928.75;;;19.80;58.38
64066;BME280;50318;54.760;9.408;2022-10-16T13:31:46;100921.69;;;19.79;59.01
64066;BME280;50318;54.760;9.408;2022-10-16T13:34:21;100939.63;;;19.83;58.99
64066;BME280;50318;54.760;9.408;2022-10-16T13:36:49;100935.34;;;19.77;58.82
64066;BME280;50318;54.760;9.408;2022-10-16T13:41:44;100963.19;;;19.88;58.43
64066;BME280;50318;54.760;9.408;2022-10-16T13:44:15;100976.34;;;19.93;58.51
64066;BME280;50318;54.760;9.408;2022-10-16T13:46:43;100960.63;;;19.96;58.05
64066;BME280;50318;54.760;9.408;2022-10-16T13:49:16;100966.19;;;19.96;58.31
64066;BME280;50318;54.760;9.408;2022-10-16T13:51:54;100968.22;;;19.95;58.59
64066;BME280;50318;54.760;9.408;2022-10-16T13:54:22;100983.91;;;20.04;58.92
64066;BME280;50318;54.760;9.408;2022-10-16T13:56:48;100983.63;;;20.07;58.79
64066;BME280;50318;54.760;9.408;2022-10-16T13:59:24;100986.94;;;20.00;57.82
64066;BME280;50318;54.760;9.408;2022-10-16T14:01:53;100981.66;;;19.91;58.14
64066;BME280;50318;54.760;9.408;2022-10-16T14:04:20;100991.53;;;19.92;57.90
64066;BME280;50318;54.760;9.408;2022-10-16T14:06:49;100998.88;;;19.89;57.83
64066;BME280;50318;54.760;9.408;2022-10-16T14:11:57;101002.16;;;19.66;57.39
64066;BME280;50318;54.760;9.408;2022-10-16T14:14:24;101003.16;;;19.57;57.84
64066;BME280;50318;54.760;9.408;2022-10-16T14:16:52;101011.50;;;19.57;58.54
64066;BME280;50318;54.760;9.408;2022-10-16T14:19:29;101017.31;;;19.53;57.32
64066;BME280;50318;54.760;9.408;2022-10-16T14:21:56;101029.97;;;19.54;57.44
64066;BME280;50318;54.760;9.408;2022-10-16T14:24:33;101023.38;;;19.46;56.60
64066;BME280;50318;54.760;9.408;2022-10-16T14:27:33;101037.50;;;19.37;57.00
64066;BME280;50318;54.760;9.408;2022-10-16T14:30:29;101034.44;;;19.29;56.96
64066;BME280;50318;54.760;9.408;2022-10-16T14:33:04;101036.72;;;19.25;57.24
64066;BME280;50318;54.760;9.408;2022-10-16T14:35:33;101039.75;;;19.27;57.33
64066;BME280;50318;54.760;9.408;2022-10-16T14:38:01;101053.91;;;19.29;57.57
64066;BME280;50318;54.760;9.408;2022-10-16T14:40:30;101055.69;;;19.27;57.35
64066;BME280;50318;54.760;9.408;2022-10-16T14:42:57;101057.97;;;19.28;57.87
64066;BME280;50318;54.760;9.408;2022-10-16T14:45:28;101063.03;;;19.30;57.08
64066;BME280;50318;54.760;9.408;2022-10-16T14:47:58;101059.72;;;19.26;56.61
64066;BME280;50318;54.760;9.408;2022-10-16T14:50:25;101077.44;;;19.23;55.96
64066;BME280;50318;54.760;9.408;2022-10-16T14:52:50;101069.84;;;19.18;56.46
64066;BME280;50318;54.760;9.408;2022-10-16T14:55:19;101087.78;;;19.17;56.05
64066;BME280;50318;54.760;9.408;2022-10-16T14:57:46;101091.28;;;19.12;56.15
64066;BME280;50318;54.760;9.408;2022-10-16T15:00:21;101091.25;;;19.06;56.24
64066;BME280;50318;54.760;9.408;2022-10-16T15:02:49;101084.91;;;18.94;56.10
64066;BME280;50318;54.760;9.408;2022-10-16T15:05:23;101100.59;;;18.97;55.92
64066;BME280;50318;54.760;9.408;2022-10-16T15:07:50;101105.88;;;18.95;56.03
64066;BME280;50318;54.760;9.408;2022-10-16T15:10:17;101101.59;;;18.94;55.95
64066;BME280;50318;54.760;9.408;2022-10-16T15:12:43;101110.63;;;18.84;55.50
64066;BME280;50318;54.760;9.408;2022-10-16T15:15:23;101118.19;;;18.83;56.14